sensor_id;sensor_type;location;lat;lon;timestamp;temperature;humidity
44271;DHT22;29963;44.594;11.368;2023-12-20T00:00:37;6.50;99.90
44271;DHT22;29963;44.594;11.368;2023-12-20T00:03:05;6.60;99.90
44271;DHT22;29963;44.594;11.368;2023-12-20T00:05:31;6.50;99.90
44271;DHT22;29963;44.594;11.368;2023-12-20T00:07:58;6.60;99.90
44271;DHT22;29963;44.594;11.368;2023-12-20T00:10:23;6.60;99.90
44271;DHT22;29963;44.594;11.368;2023-12-20T00:12:49;6.60;99.90
44271;DHT22;29963;44.594;11.368;2023-12-20T00:15:15;6.60;99.90
44271;DHT22;29963;44.594;11.368;2023-12-20T00:17:40;6.60;99.90
44271;DHT22;29963;44.594;11.368;2023-12-20T00:20:07;6.60;99.90
44271;DHT22;29963;44.594;11.368;2023-12-20T00:22:32;6.50;99.90
44271;DHT22;29963;44.594;11.368;2023-12-20T00:24:58;6.50;99.90
44271;DHT22;29963;44.594;11.368;2023-12-20T00:27:24;6.50;99.90
44271;DHT22;29963;44.594;11.368;2023-12-20T00:29:49;6.50;99.90
44271;DHT22;29963;44.594;11.368;2023-12-20T00:32:16;6.50;99.90
44271;DHT22;29963;44.594;11.368;2023-12-20T00:34:42;6.40;99.90
44271;DHT22;29963;44.594;11.368;2023-12-20T00:37:08;6.40;99.90
44271;DHT22;29963;44.594;11.368;2023-12-20T00:39:34;6.40;99.90
44271;DHT22;29963;44.594;11.368;2023-12-20T00:42:00;6.30;99.90
44271;DHT22;29963;44.594;11.368;2023-12-20T00:44:25;6.30;99.90
44271;DHT22;29963;44.594;11.368;2023-12-20T00:46:58;6.30;99.90
44271;DHT22;29963;44.594;11.368;2023-12-20T00:49:24;6.20;99.90
44271;DHT22;29963;44.594;11.368;2023-12-20T00:51:50;6.20;99.90
44271;DHT22;29963;44.594;11.368;2023-12-20T00:54:18;6.20;99.90
44271;DHT22;29963;44.594;11.368;2023-12-20T00:56:44;6.20;99.90
44271;DHT22;29963;44.594;11.368;2023-12-20T00:59:09;6.20;99.90
44271;DHT22;29963;44.594;11.368;2023-12-20T01:01:36;6.20;99.90
44271;DHT22;29963;44.594;11.368;2023-12-20T01:04:01;6.20;99.90
44271;DHT22;29963;44.594;11.368;2023-12-20T01:06:27;6.20;99.90
44271;DHT22;29963;44.594;11.368;2023-12-20T01:08:53;6.30;99.90
44271;DHT22;29963;44.594;11.368;2023-12-20T01:11:19;6.30;99.90
44271;DHT22;29963;44.594;11.368;2023-12-20T01:13:45;6.30;99.90
44271;DHT22;29963;44.594;11.368;2023-12-20T01:16:11;6.30;99.90
44271;DHT22;29963;44.594;11.368;2023-12-20T01:18:37;6.30;99.90
44271;DHT22;29963;44.594;11.368;2023-12-20T01:21:04;6.20;99.90
44271;DHT22;29963;44.594;11.368;2023-12-20T01:23:30;6.30;99.90
44271;DHT22;29963;44.594;11.368;2023-12-20T01:25:59;6.30;99.90
44271;DHT22;29963;44.594;11.368;2023-12-20T01:28:25;6.30;99.90
44271;DHT22;29963;44.594;11.368;2023-12-20T01:30:51;6.30;99.90
44271;DHT22;29963;44.594;11.368;2023-12-20T01:33:17;6.30;99.90
44271;DHT22;29963;44.594;11.368;2023-12-20T01:35:42;6.30;99.90
44271;DHT22;29963;44.594;11.368;2023-12-20T01:38:09;6.30;99.90
44271;DHT22;29963;44.594;11.368;2023-12-20T01:40:34;6.30;99.90
44271;DHT22;29963;44.594;11.368;2023-12-20T01:43:02;6.20;99.90
44271;DHT22;29963;44.594;11.368;2023-12-20T01:45:28;6.20;99.90
44271;DHT22;29963;44.594;11.368;2023-12-20T01:47:55;6.20;99.90
44271;DHT22;29963;44.594;11.368;2023-12-20T01:50:24;6.20;99.90
44271;DHT22;29963;44.594;11.368;2023-12-20T01:52:51;6.20;99.90
44271;DHT22;29963;44.594;11.368;2023-12-20T01:55:19;6.20;99.90
44271;DHT22;29963;44.594;11.368;2023-12-20T01:57:45;6.20;99.90
44271;DHT22;29963;44.594;11.368;2023-12-20T02:00:13;6.20;99.90
44271;DHT22;29963;44.594;11.368;2023-12-20T02:02:40;6.20;99.90
44271;DHT22;29963;44.594;11.368;2023-12-20T02:05:06;6.20;99.90
44271;DHT22;29963;44.594;11.368;2023-12-20T02:07:35;6.20;99.90
44271;DHT22;29963;44.594;11.368;2023-12-20T02:10:02;6.20;99.90
44271;DHT22;29963;44.594;11.368;2023-12-20T02:12:27;6.10;99.90
44271;DHT22;29963;44.594;11.368;2023-12-20T02:14:53;6.00;99.90
44271;DHT22;29963;44.594;11.368;2023-12-20T02:17:20;6.00;99.90
44271;DHT22;29963;44.594;11.368;2023-12-20T02:19:45;5.90;99.90
44271;DHT22;29963;44.594;11.368;2023-12-20T02:22:12;5.80;99.90
44271;DHT22;29963;44.594;11.368;2023-12-20T02:24:38;5.80;99.90
44271;DHT22;29963;44.594;11.368;2023-12-20T02:27:06;5.70;99.90
44271;DHT22;29963;44.594;11.368;2023-12-20T02:29:35;5.60;99.90
44271;DHT22;29963;44.594;11.368;2023-12-20T02:32:02;5.40;99.90
44271;DHT22;29963;44.594;11.368;2023-12-20T02:34:28;5.20;99.90
44271;DHT22;29963;44.594;11.368;2023-12-20T02:36:54;5.10;99.90
44271;DHT22;29963;44.594;11.368;2023-12-20T02:39:20;5.00;99.90
44271;DHT22;29963;44.594;11.368;2023-12-20T02:41:46;4.90;99.90
44271;DHT22;29963;44.594;11.368;2023-12-20T02:44:12;5.00;99.90
44271;DHT22;29963;44.594;11.368;2023-12-20T02:46:38;5.00;99.90
44271;DHT22;29963;44.594;11.368;2023-12-20T02:49:03;5.10;99.90
44271;DHT22;29963;44.594;11.368;2023-12-20T02:51:29;5.10;99.90
44271;DHT22;29963;44.594;11.368;2023-12-20T02:53:58;5.10;99.90
44271;DHT22;29963;44.594;11.368;2023-12-20T02:56:23;5.10;99.90
44271;DHT22;29963;44.594;11.368;2023-12-20T02:58:49;5.20;99.90
44271;DHT22;29963;44.594;11.368;2023-12-20T03:01:15;5.30;99.90
44271;DHT22;29963;44.594;11.368;2023-12-20T03:03:40;5.40;99.90
44271;DHT22;29963;44.594;11.368;2023-12-20T03:06:06;5.30;99.90
44271;DHT22;29963;44.594;11.368;2023-12-20T03:08:34;5.30;99.90
44271;DHT22;29963;44.594;11.368;2023-12-20T03:11:00;5.20;99.90
44271;DHT22;29963;44.594;11.368;2023-12-20T03:13:26;5.20;99.90
44271;DHT22;29963;44.594;11.368;2023-12-20T03:15:51;5.20;99.90
44271;DHT22;29963;44.594;11.368;2023-12-20T03:18:17;5.10;99.90
44271;DHT22;29963;44.594;11.368;2023-12-20T03:20:43;5.10;99.90
44271;DHT22;29963;44.594;11.368;2023-12-20T03:23:09;5.00;99.90
44271;DHT22;29963;44.594;11.368;2023-12-20T03:25:35;5.00;99.90
44271;DHT22;29963;44.594;11.368;2023-12-20T03:28:00;5.00;99.90
44271;DHT22;29963;44.594;11.368;2023-12-20T03:30:26;5.00;99.90
44271;DHT22;29963;44.594;11.368;2023-12-20T03:32:52;5.00;99.90
44271;DHT22;29963;44.594;11.368;2023-12-20T03:35:17;5.00;99.90
44271;DHT22;29963;44.594;11.368;2023-12-20T03:37:43;4.90;99.90
44271;DHT22;29963;44.594;11.368;2023-12-20T03:40:09;4.90;99.90
44271;DHT22;29963;44.594;11.368;2023-12-20T03:42:35;5.00;99.90
44271;DHT22;29963;44.594;11.368;2023-12-20T03:45:01;5.00;99.90
44271;DHT22;29963;44.594;11.368;2023-12-20T03:47:26;4.90;99.90
44271;DHT22;29963;44.594;11.368;2023-12-20T03:49:53;4.90;99.90
44271;DHT22;29963;44.594;11.368;2023-12-20T03:52:21;4.80;99.90
44271;DHT22;29963;44.594;11.368;2023-12-20T03:54:47;4.80;99.90
44271;DHT22;29963;44.594;11.368;2023-12-20T03:57:13;4.70;99.90
44271;DHT22;29963;44.594;11.368;2023-12-20T03:59:38;4.80;99.90
44271;DHT22;29963;44.594;11.368;2023-12-20T04:02:04;4.80;99.90
44271;DHT22;29963;44.594;11.368;2023-12-20T04:04:33;4.90;99.90
44271;DHT22;29963;44.594;11.368;2023-12-20T04:06:59;4.90;99.90
44271;DHT22;29963;44.594;11.368;2023-12-20T04:09:24;4.90;99.90
44271;DHT22;29963;44.594;11.368;2023-12-20T04:11:50;4.90;99.90
44271;DHT22;29963;44.594;11.368;2023-12-20T04:14:16;4.90;99.90
44271;DHT22;29963;44.594;11.368;2023-12-20T04:16:42;4.90;99.90
44271;DHT22;29963;44.594;11.368;2023-12-20T04:19:08;4.90;99.90
44271;DHT22;29963;44.594;11.368;2023-12-20T04:21:33;4.90;99.90
44271;DHT22;29963;44.594;11.368;2023-12-20T04:23:59;4.80;99.90
44271;DHT22;29963;44.594;11.368;2023-12-20T04:26:25;4.80;99.90
44271;DHT22;29963;44.594;11.368;2023-12-20T04:28:51;4.80;99.90
44271;DHT22;29963;44.594;11.368;2023-12-20T04:31:16;4.70;99.90
44271;DHT22;29963;44.594;11.368;2023-12-20T04:33:42;4.60;99.90
44271;DHT22;29963;44.594;11.368;2023-12-20T04:36:08;4.70;99.90
44271;DHT22;29963;44.594;11.368;2023-12-20T04:38:34;4.60;99.90
44271;DHT22;29963;44.594;11.368;2023-12-20T04:41:00;4.50;99.90
44271;DHT22;29963;44.594;11.368;2023-12-20T04:43:26;4.40;99.90
44271;DHT22;29963;44.594;11.368;2023-12-20T04:45:51;4.40;99.90
44271;DHT22;29963;44.594;11.368;2023-12-20T04:48:17;4.40;99.90
44271;DHT22;29963;44.594;11.368;2023-12-20T04:50:46;4.50;99.90
44271;DHT22;29963;44.594;11.368;2023-12-20T04:53:11;4.50;99.90
44271;DHT22;29963;44.594;11.368;2023-12-20T04:55:37;4.60;99.90
44271;DHT22;29963;44.594;11.368;2023-12-20T04:58:03;4.70;99.90
44271;DHT22;29963;44.594;11.368;2023-12-20T05:00:28;4.70;99.90
44271;DHT22;29963;44.594;11.368;2023-12-20T05:02:55;4.80;99.90
44271;DHT22;29963;44.594;11.368;2023-12-20T05:05:21;4.90;99.90
44271;DHT22;29963;44.594;11.368;2023-12-20T05:07:46;5.00;99.90
44271;DHT22;29963;44.594;11.368;2023-12-20T05:10:12;5.10;99.90
44271;DHT22;29963;44.594;11.368;2023-12-20T05:12:38;5.20;99.90
44271;DHT22;29963;44.594;11.368;2023-12-20T05:15:06;5.20;99.90
44271;DHT22;29963;44.594;11.368;2023-12-20T05:17:32;5.30;99.90
44271;DHT22;29963;44.594;11.368;2023-12-20T05:19:57;5.30;99.90
44271;DHT22;29963;44.594;11.368;2023-12-20T05:22:23;5.30;99.90
44271;DHT22;29963;44.594;11.368;2023-12-20T05:24:49;5.30;99.90
44271;DHT22;29963;44.594;11.368;2023-12-20T05:27:15;5.30;99.90
44271;DHT22;29963;44.594;11.368;2023-12-20T05:29:40;5.30;99.90
44271;DHT22;29963;44.594;11.368;2023-12-20T05:32:06;5.30;99.90
44271;DHT22;29963;44.594;11.368;2023-12-20T05:34:32;5.20;99.90
44271;DHT22;29963;44.594;11.368;2023-12-20T05:36:58;5.20;99.90
44271;DHT22;29963;44.594;11.368;2023-12-20T05:39:24;5.20;99.90
44271;DHT22;29963;44.594;11.368;2023-12-20T05:41:50;5.10;99.90
44271;DHT22;29963;44.594;11.368;2023-12-20T05:44:15;5.10;99.90
44271;DHT22;29963;44.594;11.368;2023-12-20T05:46:41;4.90;99.90
44271;DHT22;29963;44.594;11.368;2023-12-20T05:49:07;4.90;99.90
44271;DHT22;29963;44.594;11.368;2023-12-20T05:51:32;4.80;99.90
44271;DHT22;29963;44.594;11.368;2023-12-20T05:53:58;4.80;99.90
44271;DHT22;29963;44.594;11.368;2023-12-20T05:56:24;4.80;99.90
44271;DHT22;29963;44.594;11.368;2023-12-20T05:58:50;4.80;99.90
44271;DHT22;29963;44.594;11.368;2023-12-20T06:01:16;4.80;99.90
44271;DHT22;29963;44.594;11.368;2023-12-20T06:03:44;4.70;99.90
44271;DHT22;29963;44.594;11.368;2023-12-20T06:06:11;4.70;99.90
44271;DHT22;29963;44.594;11.368;2023-12-20T06:08:38;4.70;99.90
44271;DHT22;29963;44.594;11.368;2023-12-20T06:11:04;4.70;99.90
44271;DHT22;29963;44.594;11.368;2023-12-20T06:13:31;4.60;99.90
44271;DHT22;29963;44.594;11.368;2023-12-20T06:15:56;4.60;99.90
44271;DHT22;29963;44.594;11.368;2023-12-20T06:18:23;4.60;99.90
44271;DHT22;29963;44.594;11.368;2023-12-20T06:20:48;4.60;99.90
44271;DHT22;29963;44.594;11.368;2023-12-20T06:23:14;4.60;99.90
44271;DHT22;29963;44.594;11.368;2023-12-20T06:25:40;4.60;99.90
44271;DHT22;29963;44.594;11.368;2023-12-20T06:28:06;4.60;99.90
44271;DHT22;29963;44.594;11.368;2023-12-20T06:30:32;4.70;99.90
44271;DHT22;29963;44.594;11.368;2023-12-20T06:32:58;4.70;99.90
44271;DHT22;29963;44.594;11.368;2023-12-20T06:35:24;4.80;99.90
44271;DHT22;29963;44.594;11.368;2023-12-20T06:37:50;4.90;99.90
44271;DHT22;29963;44.594;11.368;2023-12-20T06:40:16;4.80;99.90
44271;DHT22;29963;44.594;11.368;2023-12-20T06:42:42;4.70;99.90
44271;DHT22;29963;44.594;11.368;2023-12-20T06:45:08;4.60;99.90
44271;DHT22;29963;44.594;11.368;2023-12-20T06:47:34;4.50;99.90
44271;DHT22;29963;44.594;11.368;2023-12-20T06:50:00;4.50;99.90
44271;DHT22;29963;44.594;11.368;2023-12-20T06:52:26;4.60;99.90
44271;DHT22;29963;44.594;11.368;2023-12-20T06:54:52;4.60;99.90
44271;DHT22;29963;44.594;11.368;2023-12-20T06:57:17;4.70;99.90
44271;DHT22;29963;44.594;11.368;2023-12-20T06:59:45;4.80;99.90
44271;DHT22;29963;44.594;11.368;2023-12-20T07:02:11;4.80;99.90
44271;DHT22;29963;44.594;11.368;2023-12-20T07:04:40;4.80;99.90
44271;DHT22;29963;44.594;11.368;2023-12-20T07:07:06;4.90;99.90
44271;DHT22;29963;44.594;11.368;2023-12-20T07:09:32;5.00;99.90
44271;DHT22;29963;44.594;11.368;2023-12-20T07:11:58;5.00;99.90
44271;DHT22;29963;44.594;11.368;2023-12-20T07:14:24;5.10;99.90
44271;DHT22;29963;44.594;11.368;2023-12-20T07:16:53;5.10;99.90
44271;DHT22;29963;44.594;11.368;2023-12-20T07:19:19;5.10;99.90
44271;DHT22;29963;44.594;11.368;2023-12-20T07:21:44;5.00;99.90
44271;DHT22;29963;44.594;11.368;2023-12-20T07:24:10;5.10;99.90
44271;DHT22;29963;44.594;11.368;2023-12-20T07:26:36;5.10;99.90
44271;DHT22;29963;44.594;11.368;2023-12-20T07:29:03;5.10;99.90
44271;DHT22;29963;44.594;11.368;2023-12-20T07:31:29;5.20;99.90
44271;DHT22;29963;44.594;11.368;2023-12-20T07:33:56;5.20;99.90
44271;DHT22;29963;44.594;11.368;2023-12-20T07:36:21;5.20;99.90
44271;DHT22;29963;44.594;11.368;2023-12-20T07:38:47;5.30;99.90
44271;DHT22;29963;44.594;11.368;2023-12-20T07:41:13;5.40;99.90
44271;DHT22;29963;44.594;11.368;2023-12-20T07:43:41;5.40;99.90
44271;DHT22;29963;44.594;11.368;2023-12-20T07:46:07;5.40;99.90
44271;DHT22;29963;44.594;11.368;2023-12-20T07:48:36;5.50;99.90
44271;DHT22;29963;44.594;11.368;2023-12-20T07:51:03;5.50;99.90
44271;DHT22;29963;44.594;11.368;2023-12-20T07:53:29;5.50;99.90
44271;DHT22;29963;44.594;11.368;2023-12-20T07:55:55;5.50;99.90
44271;DHT22;29963;44.594;11.368;2023-12-20T07:58:21;5.50;99.90
44271;DHT22;29963;44.594;11.368;2023-12-20T08:00:47;5.50;99.90
44271;DHT22;29963;44.594;11.368;2023-12-20T08:03:13;5.50;99.90
44271;DHT22;29963;44.594;11.368;2023-12-20T08:05:39;5.50;99.90
44271;DHT22;29963;44.594;11.368;2023-12-20T08:08:07;5.50;99.90
44271;DHT22;29963;44.594;11.368;2023-12-20T08:10:33;5.40;99.90
44271;DHT22;29963;44.594;11.368;2023-12-20T08:12:59;5.40;99.90
44271;DHT22;29963;44.594;11.368;2023-12-20T08:15:24;5.20;99.90
44271;DHT22;29963;44.594;11.368;2023-12-20T08:17:50;5.20;99.90
44271;DHT22;29963;44.594;11.368;2023-12-20T08:20:17;5.20;99.90
44271;DHT22;29963;44.594;11.368;2023-12-20T08:22:42;5.20;99.90
44271;DHT22;29963;44.594;11.368;2023-12-20T08:25:08;5.30;99.90
44271;DHT22;29963;44.594;11.368;2023-12-20T08:27:43;5.30;99.90
44271;DHT22;29963;44.594;11.368;2023-12-20T08:30:09;5.30;99.90
44271;DHT22;29963;44.594;11.368;2023-12-20T08:32:38;5.30;99.90
44271;DHT22;29963;44.594;11.368;2023-12-20T08:35:04;5.40;99.90
44271;DHT22;29963;44.594;11.368;2023-12-20T08:37:31;5.40;99.90
44271;DHT22;29963;44.594;11.368;2023-12-20T08:39:57;5.40;99.90
44271;DHT22;29963;44.594;11.368;2023-12-20T08:42:22;5.30;99.90
44271;DHT22;29963;44.594;11.368;2023-12-20T08:44:50;5.30;99.90
44271;DHT22;29963;44.594;11.368;2023-12-20T08:47:15;5.30;99.90
44271;DHT22;29963;44.594;11.368;2023-12-20T08:49:42;5.30;99.90
44271;DHT22;29963;44.594;11.368;2023-12-20T08:52:09;5.20;99.90
44271;DHT22;29963;44.594;11.368;2023-12-20T08:54:34;5.30;99.90
44271;DHT22;29963;44.594;11.368;2023-12-20T08:57:00;5.40;99.90
44271;DHT22;29963;44.594;11.368;2023-12-20T08:59:26;5.40;99.90
44271;DHT22;29963;44.594;11.368;2023-12-20T09:01:51;5.50;99.90
44271;DHT22;29963;44.594;11.368;2023-12-20T09:04:20;5.60;99.90
44271;DHT22;29963;44.594;11.368;2023-12-20T09:06:46;5.60;99.90
44271;DHT22;29963;44.594;11.368;2023-12-20T09:09:11;5.70;99.90
44271;DHT22;29963;44.594;11.368;2023-12-20T09:11:39;5.90;99.90
44271;DHT22;29963;44.594;11.368;2023-12-20T09:14:05;5.90;99.90
44271;DHT22;29963;44.594;11.368;2023-12-20T09:16:31;6.00;99.90
44271;DHT22;29963;44.594;11.368;2023-12-20T09:18:57;6.10;99.90
44271;DHT22;29963;44.594;11.368;2023-12-20T09:21:26;6.20;99.90
44271;DHT22;29963;44.594;11.368;2023-12-20T09:23:51;6.20;99.90
44271;DHT22;29963;44.594;11.368;2023-12-20T09:26:17;6.20;99.90
44271;DHT22;29963;44.594;11.368;2023-12-20T09:28:43;6.30;99.90
44271;DHT22;29963;44.594;11.368;2023-12-20T09:31:09;6.30;99.90
44271;DHT22;29963;44.594;11.368;2023-12-20T09:33:35;6.30;99.90
44271;DHT22;29963;44.594;11.368;2023-12-20T09:36:00;6.30;99.90
44271;DHT22;29963;44.594;11.368;2023-12-20T09:38:26;6.30;99.90
44271;DHT22;29963;44.594;11.368;2023-12-20T09:40:52;6.40;99.90
44271;DHT22;29963;44.594;11.368;2023-12-20T09:43:20;6.40;99.90
44271;DHT22;29963;44.594;11.368;2023-12-20T09:45:47;6.50;99.90
44271;DHT22;29963;44.594;11.368;2023-12-20T09:48:13;6.50;99.90
44271;DHT22;29963;44.594;11.368;2023-12-20T09:50:42;6.50;99.90
44271;DHT22;29963;44.594;11.368;2023-12-20T09:53:10;6.50;99.90
44271;DHT22;29963;44.594;11.368;2023-12-20T09:55:38;6.50;99.90
44271;DHT22;29963;44.594;11.368;2023-12-20T09:58:04;6.60;99.90
44271;DHT22;29963;44.594;11.368;2023-12-20T10:00:31;6.60;99.90
44271;DHT22;29963;44.594;11.368;2023-12-20T10:03:00;6.60;99.90
44271;DHT22;29963;44.594;11.368;2023-12-20T10:05:29;6.60;99.90
44271;DHT22;29963;44.594;11.368;2023-12-20T10:07:55;6.70;99.90
44271;DHT22;29963;44.594;11.368;2023-12-20T10:10:22;6.80;99.90
44271;DHT22;29963;44.594;11.368;2023-12-20T10:13:08;6.90;99.90
44271;DHT22;29963;44.594;11.368;2023-12-20T10:15:34;7.00;99.90
44271;DHT22;29963;44.594;11.368;2023-12-20T10:18:04;7.00;99.90
44271;DHT22;29963;44.594;11.368;2023-12-20T10:20:30;7.00;99.90
44271;DHT22;29963;44.594;11.368;2023-12-20T10:22:58;7.10;99.90
44271;DHT22;29963;44.594;11.368;2023-12-20T10:25:24;7.10;99.90
44271;DHT22;29963;44.594;11.368;2023-12-20T10:30:33;7.30;99.90
44271;DHT22;29963;44.594;11.368;2023-12-20T10:32:59;7.30;99.90
44271;DHT22;29963;44.594;11.368;2023-12-20T10:35:25;7.30;99.90
44271;DHT22;29963;44.594;11.368;2023-12-20T10:37:55;7.40;99.90
44271;DHT22;29963;44.594;11.368;2023-12-20T10:40:26;7.40;99.90
44271;DHT22;29963;44.594;11.368;2023-12-20T10:42:53;7.50;99.90
44271;DHT22;29963;44.594;11.368;2023-12-20T10:45:19;7.50;99.90
44271;DHT22;29963;44.594;11.368;2023-12-20T10:47:46;7.60;99.90
44271;DHT22;29963;44.594;11.368;2023-12-20T10:50:12;7.70;99.90
44271;DHT22;29963;44.594;11.368;2023-12-20T10:52:38;7.70;99.90
44271;DHT22;29963;44.594;11.368;2023-12-20T10:55:06;7.70;99.90
44271;DHT22;29963;44.594;11.368;2023-12-20T10:57:32;7.70;99.90
44271;DHT22;29963;44.594;11.368;2023-12-20T11:00:01;7.80;99.90
44271;DHT22;29963;44.594;11.368;2023-12-20T11:02:32;7.80;99.90
44271;DHT22;29963;44.594;11.368;2023-12-20T11:05:28;7.80;99.90
44271;DHT22;29963;44.594;11.368;2023-12-20T11:08:02;7.80;99.90
44271;DHT22;29963;44.594;11.368;2023-12-20T11:10:34;7.90;99.90
44271;DHT22;29963;44.594;11.368;2023-12-20T11:13:12;7.90;99.90
44271;DHT22;29963;44.594;11.368;2023-12-20T11:15:42;8.00;99.90
44271;DHT22;29963;44.594;11.368;2023-12-20T11:18:11;8.10;99.90
44271;DHT22;29963;44.594;11.368;2023-12-20T11:20:38;8.10;99.90
44271;DHT22;29963;44.594;11.368;2023-12-20T11:23:05;8.00;99.90
44271;DHT22;29963;44.594;11.368;2023-12-20T11:25:51;8.00;99.90
44271;DHT22;29963;44.594;11.368;2023-12-20T11:28:21;8.10;99.90
44271;DHT22;29963;44.594;11.368;2023-12-20T11:33:17;8.10;99.90
44271;DHT22;29963;44.594;11.368;2023-12-20T11:35:46;8.10;99.90
44271;DHT22;29963;44.594;11.368;2023-12-20T11:38:14;8.20;99.90
44271;DHT22;29963;44.594;11.368;2023-12-20T11:40:42;8.30;99.90
44271;DHT22;29963;44.594;11.368;2023-12-20T11:43:08;8.30;99.90
44271;DHT22;29963;44.594;11.368;2023-12-20T11:45:34;8.70;99.90
44271;DHT22;29963;44.594;11.368;2023-12-20T11:48:01;8.30;99.90
44271;DHT22;29963;44.594;11.368;2023-12-20T11:50:28;8.30;99.90
44271;DHT22;29963;44.594;11.368;2023-12-20T11:52:55;8.30;99.90
44271;DHT22;29963;44.594;11.368;2023-12-20T11:55:24;8.40;99.90
44271;DHT22;29963;44.594;11.368;2023-12-20T11:57:51;8.30;99.90
44271;DHT22;29963;44.594;11.368;2023-12-20T12:00:18;8.30;99.90
44271;DHT22;29963;44.594;11.368;2023-12-20T12:02:45;8.30;99.90
44271;DHT22;29963;44.594;11.368;2023-12-20T12:05:20;8.30;99.90
44271;DHT22;29963;44.594;11.368;2023-12-20T12:07:45;8.30;99.90
44271;DHT22;29963;44.594;11.368;2023-12-20T12:10:11;8.30;99.90
44271;DHT22;29963;44.594;11.368;2023-12-20T12:12:37;8.30;99.90
44271;DHT22;29963;44.594;11.368;2023-12-20T12:15:03;8.30;99.90
44271;DHT22;29963;44.594;11.368;2023-12-20T12:17:30;8.40;99.90
44271;DHT22;29963;44.594;11.368;2023-12-20T12:20:05;8.50;99.90
44271;DHT22;29963;44.594;11.368;2023-12-20T12:22:31;8.50;99.90
44271;DHT22;29963;44.594;11.368;2023-12-20T12:24:59;8.60;99.90
44271;DHT22;29963;44.594;11.368;2023-12-20T12:27:34;8.60;99.90
44271;DHT22;29963;44.594;11.368;2023-12-20T12:30:03;8.50;99.90
44271;DHT22;29963;44.594;11.368;2023-12-20T12:32:30;8.50;99.90
44271;DHT22;29963;44.594;11.368;2023-12-20T12:34:58;8.50;99.90
44271;DHT22;29963;44.594;11.368;2023-12-20T12:37:24;8.50;99.90
44271;DHT22;29963;44.594;11.368;2023-12-20T12:39:50;8.50;99.90
44271;DHT22;29963;44.594;11.368;2023-12-20T12:42:18;8.60;99.90
44271;DHT22;29963;44.594;11.368;2023-12-20T12:44:44;8.50;99.90
44271;DHT22;29963;44.594;11.368;2023-12-20T12:47:10;8.50;99.90
44271;DHT22;29963;44.594;11.368;2023-12-20T12:49:35;8.50;99.90
44271;DHT22;29963;44.594;11.368;2023-12-20T12:52:01;8.60;99.90
44271;DHT22;29963;44.594;11.368;2023-12-20T12:54:28;8.50;99.90
44271;DHT22;29963;44.594;11.368;2023-12-20T12:56:54;8.50;99.90
44271;DHT22;29963;44.594;11.368;2023-12-20T12:59:19;8.60;99.90
44271;DHT22;29963;44.594;11.368;2023-12-20T13:01:45;8.60;99.90
44271;DHT22;29963;44.594;11.368;2023-12-20T13:04:14;8.50;99.90
44271;DHT22;29963;44.594;11.368;2023-12-20T13:06:40;8.50;99.90
44271;DHT22;29963;44.594;11.368;2023-12-20T13:09:10;8.50;99.90
44271;DHT22;29963;44.594;11.368;2023-12-20T13:11:36;8.50;99.90
44271;DHT22;29963;44.594;11.368;2023-12-20T13:14:01;8.50;99.90
44271;DHT22;29963;44.594;11.368;2023-12-20T13:16:29;8.50;99.90
44271;DHT22;29963;44.594;11.368;2023-12-20T13:18:59;8.50;99.90
44271;DHT22;29963;44.594;11.368;2023-12-20T13:21:25;8.40;99.90
44271;DHT22;29963;44.594;11.368;2023-12-20T13:23:51;8.40;99.90
44271;DHT22;29963;44.594;11.368;2023-12-20T13:26:20;8.30;99.90
44271;DHT22;29963;44.594;11.368;2023-12-20T13:28:46;8.40;99.90
44271;DHT22;29963;44.594;11.368;2023-12-20T13:31:11;8.30;99.90
44271;DHT22;29963;44.594;11.368;2023-12-20T13:33:37;8.40;99.90
44271;DHT22;29963;44.594;11.368;2023-12-20T13:36:04;8.40;99.90
44271;DHT22;29963;44.594;11.368;2023-12-20T13:38:30;8.40;99.90
44271;DHT22;29963;44.594;11.368;2023-12-20T13:40:56;8.30;99.90
44271;DHT22;29963;44.594;11.368;2023-12-20T13:43:23;8.30;99.90
44271;DHT22;29963;44.594;11.368;2023-12-20T13:45:50;8.30;99.90
44271;DHT22;29963;44.594;11.368;2023-12-20T13:48:16;8.20;99.90
44271;DHT22;29963;44.594;11.368;2023-12-20T13:50:41;8.20;99.90
44271;DHT22;29963;44.594;11.368;2023-12-20T13:53:07;8.20;99.90
44271;DHT22;29963;44.594;11.368;2023-12-20T13:55:33;8.10;99.90
44271;DHT22;29963;44.594;11.368;2023-12-20T13:57:59;8.10;99.90
44271;DHT22;29963;44.594;11.368;2023-12-20T14:00:24;8.10;99.90
44271;DHT22;29963;44.594;11.368;2023-12-20T14:02:53;8.00;99.90
44271;DHT22;29963;44.594;11.368;2023-12-20T14:05:19;8.00;99.90
44271;DHT22;29963;44.594;11.368;2023-12-20T14:07:44;8.00;99.90
44271;DHT22;29963;44.594;11.368;2023-12-20T14:10:14;8.00;99.90
44271;DHT22;29963;44.594;11.368;2023-12-20T14:12:39;8.00;99.90
44271;DHT22;29963;44.594;11.368;2023-12-20T14:15:06;8.00;99.90
44271;DHT22;29963;44.594;11.368;2023-12-20T14:17:40;8.00;99.90
44271;DHT22;29963;44.594;11.368;2023-12-20T14:20:09;8.00;99.90
44271;DHT22;29963;44.594;11.368;2023-12-20T14:22:35;8.10;99.90
44271;DHT22;29963;44.594;11.368;2023-12-20T14:25:01;8.10;99.90
44271;DHT22;29963;44.594;11.368;2023-12-20T14:27:31;8.10;99.90
44271;DHT22;29963;44.594;11.368;2023-12-20T14:29:57;8.20;99.90
44271;DHT22;29963;44.594;11.368;2023-12-20T14:32:24;8.10;99.90
44271;DHT22;29963;44.594;11.368;2023-12-20T14:34:50;8.10;99.90
44271;DHT22;29963;44.594;11.368;2023-12-20T14:37:15;8.10;99.90
44271;DHT22;29963;44.594;11.368;2023-12-20T14:39:43;8.10;99.90
44271;DHT22;29963;44.594;11.368;2023-12-20T14:42:08;8.10;99.90
44271;DHT22;29963;44.594;11.368;2023-12-20T14:44:37;8.10;99.90
44271;DHT22;29963;44.594;11.368;2023-12-20T14:47:04;8.20;99.90
44271;DHT22;29963;44.594;11.368;2023-12-20T14:49:30;8.20;99.90
44271;DHT22;29963;44.594;11.368;2023-12-20T14:51:55;8.20;99.90
44271;DHT22;29963;44.594;11.368;2023-12-20T14:54:21;8.20;99.90
44271;DHT22;29963;44.594;11.368;2023-12-20T14:56:47;8.30;99.90
44271;DHT22;29963;44.594;11.368;2023-12-20T14:59:13;8.20;99.90
44271;DHT22;29963;44.594;11.368;2023-12-20T15:01:39;8.10;99.90
44271;DHT22;29963;44.594;11.368;2023-12-20T15:04:09;8.10;99.90
44271;DHT22;29963;44.594;11.368;2023-12-20T15:06:35;8.00;99.90
44271;DHT22;29963;44.594;11.368;2023-12-20T15:09:01;8.00;99.90
44271;DHT22;29963;44.594;11.368;2023-12-20T15:11:30;8.00;99.90
44271;DHT22;29963;44.594;11.368;2023-12-20T15:13:56;7.90;99.90
44271;DHT22;29963;44.594;11.368;2023-12-20T15:16:23;7.80;99.90
44271;DHT22;29963;44.594;11.368;2023-12-20T15:18:49;7.80;99.90
44271;DHT22;29963;44.594;11.368;2023-12-20T15:21:16;7.70;99.90
44271;DHT22;29963;44.594;11.368;2023-12-20T15:23:42;7.80;99.90
44271;DHT22;29963;44.594;11.368;2023-12-20T15:26:33;7.80;99.90
44271;DHT22;29963;44.594;11.368;2023-12-20T15:28:59;7.70;99.90
44271;DHT22;29963;44.594;11.368;2023-12-20T15:31:26;7.70;99.90